createdAt,value
2023-01-06T00:00:42.262Z,17.40
2023-01-06T00:03:10.002Z,17.40
2023-01-06T00:05:36.701Z,17.40
2023-01-06T00:08:03.477Z,17.40
2023-01-06T00:10:30.333Z,17.40
2023-01-06T00:12:57.047Z,17.40
2023-01-06T00:15:23.815Z,17.30
2023-01-06T00:17:50.682Z,17.30
2023-01-06T00:20:17.513Z,17.30
2023-01-06T00:22:44.274Z,17.20
2023-01-06T00:25:11.226Z,17.30
2023-01-06T00:27:39.494Z,17.20
2023-01-06T00:30:07.798Z,17.20
2023-01-06T00:32:35.227Z,17.20
2023-01-06T00:35:02.120Z,17.20
2023-01-06T00:37:28.960Z,17.20
2023-01-06T00:39:55.751Z,17.10
2023-01-06T00:42:24.648Z,17.10
2023-01-06T00:44:52.019Z,17.10
2023-01-06T00:47:19.661Z,17.10
2023-01-06T00:49:46.880Z,17.10
2023-01-06T00:52:14.200Z,17.10
2023-01-06T00:54:41.204Z,17.00
2023-01-06T00:57:08.419Z,17.00
2023-01-06T00:59:35.464Z,17.00
2023-01-06T01:02:03.056Z,17.00
2023-01-06T01:04:30.255Z,17.00
2023-01-06T01:06:57.179Z,16.90
2023-01-06T01:09:27.170Z,16.90
2023-01-06T01:12:12.740Z,16.90
2023-01-06T01:14:41.049Z,16.90
2023-01-06T01:17:09.213Z,16.90
2023-01-06T01:19:36.942Z,16.90
2023-01-06T01:22:04.315Z,16.80
2023-01-06T01:24:31.129Z,16.80
2023-01-06T01:26:57.879Z,16.80
2023-01-06T01:29:24.975Z,16.80
2023-01-06T01:31:51.854Z,16.80
2023-01-06T01:34:19.347Z,16.80
2023-01-06T01:36:47.853Z,16.80
2023-01-06T01:39:17.505Z,16.70
2023-01-06T01:41:44.578Z,16.70
2023-01-06T01:44:52.036Z,16.70
2023-01-06T01:47:21.802Z,16.70
2023-01-06T01:49:51.618Z,16.70
2023-01-06T01:52:20.159Z,16.70
2023-01-06T01:54:48.954Z,16.70
2023-01-06T01:57:24.979Z,16.60
2023-01-06T01:59:51.864Z,16.60
2023-01-06T02:02:19.396Z,16.60
2023-01-06T02:04:51.543Z,16.60
2023-01-06T02:07:20.264Z,16.60
2023-01-06T02:10:15.418Z,16.60
2023-01-06T02:12:44.777Z,16.60
2023-01-06T02:15:15.983Z,16.60
2023-01-06T02:18:28.829Z,16.50
2023-01-06T02:21:14.690Z,16.50
2023-01-06T02:24:13.810Z,16.50
2023-01-06T02:26:57.503Z,16.50
2023-01-06T02:30:10.627Z,16.50
2023-01-06T02:32:51.058Z,16.40
2023-01-06T02:35:32.483Z,16.50
2023-01-06T02:38:28.360Z,16.40
2023-01-06T02:41:10.309Z,16.40
2023-01-06T02:43:48.743Z,16.40
2023-01-06T02:46:22.790Z,16.40
2023-01-06T02:48:52.266Z,16.40
2023-01-06T02:51:25.042Z,16.40
2023-01-06T02:54:10.031Z,16.40
2023-01-06T02:56:42.616Z,16.40
2023-01-06T02:59:26.009Z,16.40
2023-01-06T03:01:54.587Z,16.30
2023-01-06T03:04:38.973Z,16.30
2023-01-06T03:07:07.097Z,16.30
2023-01-06T03:09:38.508Z,16.30
2023-01-06T03:12:22.145Z,16.30
2023-01-06T03:14:52.819Z,16.30
2023-01-06T03:17:20.077Z,16.30
2023-01-06T03:19:47.837Z,16.30
2023-01-06T03:22:17.130Z,16.30
2023-01-06T03:24:45.183Z,16.30
2023-01-06T03:27:12.364Z,16.30
2023-01-06T03:29:40.320Z,16.30
2023-01-06T03:32:30.353Z,16.30
2023-01-06T03:35:19.539Z,16.30
2023-01-06T03:38:43.497Z,16.20
2023-01-06T03:41:53.605Z,16.20
2023-01-06T03:44:53.139Z,16.20
2023-01-06T03:47:37.768Z,16.20
2023-01-06T03:50:26.570Z,16.20
2023-01-06T03:53:21.424Z,16.20
2023-01-06T03:55:51.794Z,16.20
2023-01-06T03:58:20.154Z,16.20
2023-01-06T04:00:49.108Z,16.10
2023-01-06T04:03:16.609Z,16.10
2023-01-06T04:05:44.992Z,16.10
2023-01-06T04:08:11.818Z,16.10
2023-01-06T04:10:40.590Z,16.10
2023-01-06T04:13:07.390Z,16.10
2023-01-06T04:15:35.945Z,16.10
2023-01-06T04:18:06.757Z,16.10
2023-01-06T04:20:36.676Z,16.10
2023-01-06T04:23:26.259Z,16.10
2023-01-06T04:25:52.969Z,16.10
2023-01-06T04:28:27.376Z,16.10
2023-01-06T04:31:01.571Z,16.10
2023-01-06T04:33:30.020Z,16.10
2023-01-06T04:36:00.548Z,16.10
2023-01-06T04:38:28.005Z,16.10
2023-01-06T04:40:54.935Z,16.00
2023-01-06T04:43:21.816Z,16.00
2023-01-06T04:45:48.539Z,16.00
2023-01-06T04:48:15.276Z,16.00
2023-01-06T04:50:42.159Z,16.00
2023-01-06T04:53:11.324Z,16.00
2023-01-06T04:55:39.260Z,16.00
2023-01-06T04:58:06.072Z,16.00
2023-01-06T05:00:32.823Z,16.00
2023-01-06T05:02:59.540Z,16.00
2023-01-06T05:05:26.231Z,16.00
2023-01-06T05:07:55.963Z,16.00
2023-01-06T05:10:22.686Z,16.00
2023-01-06T05:12:49.462Z,16.00
2023-01-06T05:15:16.249Z,16.00
2023-01-06T05:17:43.028Z,16.00
2023-01-06T05:20:10.759Z,15.90
2023-01-06T05:22:37.547Z,15.90
2023-01-06T05:25:04.698Z,15.90
2023-01-06T05:27:31.460Z,15.90
2023-01-06T05:29:58.156Z,15.90
2023-01-06T05:32:24.946Z,15.90
2023-01-06T05:34:51.764Z,15.90
2023-01-06T05:37:18.489Z,15.90
2023-01-06T05:39:45.212Z,15.90
2023-01-06T05:42:11.963Z,15.90
2023-01-06T05:44:38.768Z,15.90
2023-01-06T05:47:05.517Z,15.90
2023-01-06T05:49:32.226Z,15.90
2023-01-06T05:51:59.038Z,15.90
2023-01-06T05:54:25.782Z,15.90
2023-01-06T05:56:52.514Z,15.90
2023-01-06T05:59:19.304Z,15.90
2023-01-06T06:01:46.151Z,15.90
2023-01-06T06:04:13.462Z,15.90
2023-01-06T06:06:40.189Z,15.90
2023-01-06T06:09:06.920Z,15.90
2023-01-06T06:11:33.597Z,15.90
2023-01-06T06:14:00.426Z,15.90
2023-01-06T06:16:28.492Z,15.90
2023-01-06T06:18:57.554Z,15.90
2023-01-06T06:21:30.010Z,15.90
2023-01-06T06:23:58.186Z,15.90
2023-01-06T06:26:25.452Z,15.80
2023-01-06T06:28:52.415Z,15.80
2023-01-06T06:31:22.743Z,15.80
2023-01-06T06:33:53.913Z,15.80
2023-01-06T06:36:20.822Z,15.80
2023-01-06T06:38:50.050Z,15.80
2023-01-06T06:41:17.212Z,15.80
2023-01-06T06:43:44.092Z,15.80
2023-01-06T06:46:11.829Z,15.80
2023-01-06T06:48:38.836Z,15.80
2023-01-06T06:51:08.320Z,15.80
2023-01-06T06:53:35.504Z,15.80
2023-01-06T06:56:03.501Z,15.80
2023-01-06T06:58:30.473Z,15.80
2023-01-06T07:00:57.262Z,15.80
2023-01-06T07:03:25.199Z,15.80
2023-01-06T07:05:53.500Z,15.80
2023-01-06T07:08:20.442Z,15.70
2023-01-06T07:10:47.170Z,15.70
2023-01-06T07:13:13.950Z,15.70
2023-01-06T07:15:40.750Z,15.70
2023-01-06T07:18:07.536Z,15.70
2023-01-06T07:20:36.788Z,15.70
2023-01-06T07:23:04.525Z,15.70
2023-01-06T07:25:31.757Z,15.70
2023-01-06T07:28:05.390Z,15.70
2023-01-06T07:30:32.622Z,15.70
2023-01-06T07:33:00.148Z,15.70
2023-01-06T07:35:27.213Z,15.70
2023-01-06T07:37:54.127Z,15.70
2023-01-06T07:40:20.850Z,15.70
2023-01-06T07:42:47.850Z,15.70
2023-01-06T07:45:14.736Z,15.70
2023-01-06T07:47:41.484Z,15.70
2023-01-06T07:50:08.566Z,15.70
2023-01-06T07:52:35.568Z,15.60
2023-01-06T07:55:02.695Z,15.60
2023-01-06T07:57:30.433Z,15.60
2023-01-06T07:59:57.406Z,15.60
2023-01-06T08:05:11.394Z,15.60
2023-01-06T08:07:46.833Z,15.60
2023-01-06T08:10:25.547Z,15.60
2023-01-06T08:12:55.564Z,15.60
2023-01-06T08:15:22.249Z,15.60
2023-01-06T08:17:53.144Z,15.60
2023-01-06T08:20:20.302Z,15.60
2023-01-06T08:22:47.158Z,15.60
2023-01-06T08:25:14.015Z,15.60
2023-01-06T08:27:40.711Z,15.60
2023-01-06T08:30:08.667Z,15.60
2023-01-06T08:32:35.441Z,15.60
2023-01-06T08:35:02.137Z,15.60
2023-01-06T08:37:29.824Z,15.60
2023-01-06T08:39:56.590Z,15.60
2023-01-06T08:42:23.327Z,15.60
2023-01-06T08:44:50.160Z,15.60
2023-01-06T08:47:17.014Z,15.60
2023-01-06T08:49:43.760Z,15.60
2023-01-06T08:52:10.475Z,15.50
2023-01-06T08:54:37.171Z,15.50
2023-01-06T08:57:04.178Z,15.50
2023-01-06T08:59:30.961Z,15.50
2023-01-06T09:01:57.775Z,15.50
2023-01-06T09:04:24.538Z,15.50
2023-01-06T09:06:51.279Z,15.50
2023-01-06T09:09:18.033Z,15.50
2023-01-06T09:11:45.715Z,15.50
2023-01-06T09:14:16.016Z,15.50
2023-01-06T09:16:42.873Z,15.50
2023-01-06T09:19:12.652Z,15.50
2023-01-06T09:21:42.718Z,15.50
2023-01-06T09:24:13.988Z,15.50
2023-01-06T09:26:40.999Z,15.50
2023-01-06T09:29:07.780Z,15.50
2023-01-06T09:31:34.565Z,15.50
2023-01-06T09:34:01.409Z,15.50
2023-01-06T09:36:29.320Z,15.50
2023-01-06T09:38:56.092Z,15.60
2023-01-06T09:41:52.107Z,15.60
2023-01-06T09:44:44.463Z,15.60
2023-01-06T09:47:14.033Z,15.60
2023-01-06T09:49:44.419Z,15.60
2023-01-06T09:52:34.763Z,15.60
2023-01-06T09:55:18.835Z,15.60
2023-01-06T09:58:13.117Z,15.60
2023-01-06T10:00:42.846Z,15.60
2023-01-06T10:03:14.803Z,15.60
2023-01-06T10:06:04.370Z,15.60
2023-01-06T10:08:50.922Z,15.60
2023-01-06T10:11:56.630Z,15.60
2023-01-06T10:14:38.322Z,15.60
2023-01-06T10:17:10.861Z,15.60
2023-01-06T10:19:53.952Z,15.70
2023-01-06T10:22:23.425Z,15.70
2023-01-06T10:25:01.905Z,15.70
2023-01-06T10:27:42.058Z,15.70
2023-01-06T10:30:30.183Z,15.70
2023-01-06T10:32:58.082Z,15.70
2023-01-06T10:35:28.250Z,15.70
2023-01-06T10:38:23.900Z,15.70
2023-01-06T10:41:36.891Z,15.80
2023-01-06T10:44:12.774Z,15.70
2023-01-06T10:46:58.426Z,15.80
2023-01-06T10:49:28.366Z,15.80
2023-01-06T10:52:00.548Z,15.80
2023-01-06T10:54:34.046Z,15.80
2023-01-06T10:57:04.386Z,15.80
2023-01-06T10:59:31.237Z,15.80
2023-01-06T11:01:58.933Z,15.80
2023-01-06T11:04:27.874Z,15.80
2023-01-06T11:07:00.562Z,15.80
2023-01-06T11:09:36.407Z,15.80
2023-01-06T11:12:13.327Z,15.80
2023-01-06T11:14:41.155Z,15.80
2023-01-06T11:17:14.779Z,15.80
2023-01-06T11:19:46.239Z,15.80
2023-01-06T11:22:36.187Z,15.80
2023-01-06T11:25:05.083Z,15.80
2023-01-06T11:27:31.749Z,15.80
2023-01-06T11:29:58.503Z,15.80
2023-01-06T11:32:28.630Z,15.80
2023-01-06T11:35:01.262Z,15.80
2023-01-06T11:37:38.253Z,15.80
2023-01-06T11:40:24.376Z,15.80
2023-01-06T11:42:54.762Z,15.80
2023-01-06T11:45:39.267Z,15.80
2023-01-06T11:48:15.260Z,15.80
2023-01-06T11:50:54.603Z,15.80
2023-01-06T11:53:24.339Z,15.80
2023-01-06T11:55:56.878Z,15.80
2023-01-06T11:58:32.621Z,15.80
2023-01-06T12:01:25.443Z,15.80
2023-01-06T12:04:00.631Z,15.80
2023-01-06T12:06:40.387Z,15.80
2023-01-06T12:09:40.944Z,15.80
2023-01-06T12:12:11.635Z,15.80
2023-01-06T12:14:39.484Z,15.80
2023-01-06T12:17:10.048Z,15.70
2023-01-06T12:19:51.413Z,15.70
2023-01-06T12:22:53.530Z,15.80
2023-01-06T12:25:27.636Z,15.70
2023-01-06T12:28:04.316Z,15.70
2023-01-06T12:30:45.878Z,15.70
2023-01-06T12:33:43.752Z,15.70
2023-01-06T12:36:30.944Z,15.70
2023-01-06T12:39:11.440Z,15.70
2023-01-06T12:41:55.364Z,15.70
2023-01-06T12:44:22.040Z,15.70
2023-01-06T12:46:48.717Z,15.70
2023-01-06T12:49:37.164Z,15.70
2023-01-06T12:52:08.975Z,15.70
2023-01-06T12:54:36.227Z,15.70
2023-01-06T12:57:42.362Z,15.70
2023-01-06T13:00:43.691Z,15.70
2023-01-06T13:03:33.507Z,15.70
2023-01-06T13:06:35.616Z,15.60
2023-01-06T13:09:26.492Z,15.60
2023-01-06T13:11:53.912Z,15.60
2023-01-06T13:14:35.127Z,15.60
2023-01-06T13:17:44.756Z,15.60
2023-01-06T13:20:25.800Z,15.60
2023-01-06T13:23:04.274Z,15.60
2023-01-06T13:25:41.483Z,15.60
2023-01-06T13:28:26.403Z,15.60
2023-01-06T13:31:30.795Z,15.60
2023-01-06T13:34:11.209Z,15.60
2023-01-06T13:37:07.334Z,15.60
2023-01-06T13:39:40.471Z,15.60
2023-01-06T13:42:08.219Z,15.60
2023-01-06T13:44:38.750Z,15.60
2023-01-06T13:47:10.689Z,15.60
2023-01-06T13:49:38.735Z,15.60
2023-01-06T13:52:14.781Z,15.60
2023-01-06T13:54:41.383Z,15.60
2023-01-06T13:57:20.106Z,15.60
2023-01-06T14:00:12.993Z,15.60
2023-01-06T14:02:39.894Z,15.50
2023-01-06T14:05:39.486Z,15.50
2023-01-06T14:08:18.635Z,15.60
2023-01-06T14:10:48.520Z,15.50
2023-01-06T14:13:21.584Z,15.50
2023-01-06T14:16:05.361Z,15.50
2023-01-06T14:18:35.239Z,15.50
2023-01-06T14:21:05.868Z,15.50
2023-01-06T14:23:34.283Z,15.50
2023-01-06T14:26:01.459Z,15.50
2023-01-06T14:28:31.600Z,15.50
2023-01-06T14:31:23.052Z,15.50
2023-01-06T14:33:58.148Z,15.50
2023-01-06T14:36:26.499Z,15.50
2023-01-06T14:38:58.226Z,15.50
2023-01-06T14:41:45.237Z,15.50
2023-01-06T14:44:18.316Z,15.50
2023-01-06T14:46:52.179Z,15.50
2023-01-06T14:49:41.930Z,15.40
2023-01-06T14:52:18.030Z,15.40
2023-01-06T14:54:47.434Z,15.40
2023-01-06T14:57:43.550Z,15.40
2023-01-06T15:00:23.924Z,15.40
2023-01-06T15:02:56.449Z,15.40
2023-01-06T15:05:32.889Z,15.40
2023-01-06T15:08:19.860Z,15.40
2023-01-06T15:10:51.247Z,15.40
2023-01-06T15:13:20.435Z,15.40
2023-01-06T15:16:18.625Z,15.40
2023-01-06T15:18:47.242Z,15.30
2023-01-06T15:21:15.668Z,15.30
2023-01-06T15:23:50.548Z,15.30
2023-01-06T15:26:32.145Z,15.30
2023-01-06T15:29:03.173Z,15.30
2023-01-06T15:31:33.883Z,15.30
2023-01-06T15:34:12.668Z,15.30
2023-01-06T15:36:42.987Z,15.30
2023-01-06T15:39:14.148Z,15.40
2023-01-06T15:41:41.559Z,15.30
2023-01-06T15:44:25.306Z,15.30
2023-01-06T15:46:56.858Z,15.30
2023-01-06T15:49:28.266Z,15.30
2023-01-06T15:51:58.368Z,15.30
2023-01-06T15:54:27.665Z,15.30
2023-01-06T15:56:55.682Z,15.30
2023-01-06T15:59:22.930Z,15.30
2023-01-06T16:01:53.295Z,15.30
2023-01-06T16:04:21.542Z,15.30
2023-01-06T16:06:48.305Z,15.30
2023-01-06T16:09:22.460Z,15.30
2023-01-06T16:12:04.212Z,15.30
2023-01-06T16:14:35.003Z,15.30
2023-01-06T16:17:25.315Z,15.30
2023-01-06T16:20:02.161Z,15.20
2023-01-06T16:22:49.649Z,15.20
2023-01-06T16:25:27.540Z,15.20
2023-01-06T16:27:57.764Z,15.30
2023-01-06T16:30:26.993Z,15.20
2023-01-06T16:33:00.140Z,15.20
2023-01-06T16:35:29.697Z,15.20
2023-01-06T16:37:56.551Z,15.20
2023-01-06T16:40:26.618Z,15.20
2023-01-06T16:42:58.823Z,15.20
2023-01-06T16:45:28.248Z,15.20
2023-01-06T16:47:55.838Z,15.20
2023-01-06T16:50:26.183Z,15.20
2023-01-06T16:53:14.054Z,15.20
2023-01-06T16:55:41.539Z,15.20
2023-01-06T16:58:26.537Z,15.20
2023-01-06T17:00:56.257Z,15.20
2023-01-06T17:03:24.243Z,15.20
2023-01-06T17:05:51.919Z,15.20
2023-01-06T17:08:29.107Z,15.20
2023-01-06T17:10:56.882Z,15.20
2023-01-06T17:13:36.237Z,15.20
2023-01-06T17:16:15.815Z,15.20
2023-01-06T17:18:48.917Z,15.20
2023-01-06T17:21:18.148Z,15.20
2023-01-06T17:23:44.841Z,15.20
2023-01-06T17:26:15.598Z,15.20
2023-01-06T17:28:43.169Z,15.20
2023-01-06T17:31:21.294Z,15.20
2023-01-06T17:33:48.034Z,15.20
2023-01-06T17:36:25.201Z,15.20
2023-01-06T17:38:52.476Z,15.20
2023-01-06T17:41:19.831Z,15.20
2023-01-06T17:43:47.054Z,15.20
2023-01-06T17:46:27.900Z,15.20
2023-01-06T17:49:08.651Z,15.20
2023-01-06T17:51:37.871Z,15.20
2023-01-06T17:54:42.234Z,15.20
2023-01-06T17:57:19.295Z,15.20
2023-01-06T17:59:47.937Z,15.20
2023-01-06T18:02:41.887Z,15.20
2023-01-06T18:05:34.585Z,15.20
2023-01-06T18:08:07.369Z,15.20
2023-01-06T18:10:39.603Z,15.20
2023-01-06T18:13:16.444Z,15.20
2023-01-06T18:15:47.947Z,15.20
2023-01-06T18:18:17.796Z,15.20
2023-01-06T18:21:04.252Z,15.20
2023-01-06T18:23:34.588Z,15.20
2023-01-06T18:26:24.404Z,15.30
2023-01-06T18:28:51.898Z,15.30
2023-01-06T18:31:22.184Z,15.30
2023-01-06T18:33:50.470Z,15.30
2023-01-06T18:36:17.219Z,15.20
2023-01-06T18:38:45.179Z,15.20
2023-01-06T18:41:12.710Z,15.20
2023-01-06T18:43:40.825Z,15.20
2023-01-06T18:46:16.185Z,15.30
2023-01-06T18:48:44.407Z,15.20
2023-01-06T18:51:22.900Z,15.20
2023-01-06T18:53:51.276Z,15.20
2023-01-06T18:56:26.870Z,15.20
2023-01-06T18:58:57.055Z,15.20
2023-01-06T19:01:29.060Z,15.20
2023-01-06T19:04:11.963Z,15.20
2023-01-06T19:07:01.420Z,15.20
2023-01-06T19:09:45.728Z,15.20
2023-01-06T19:12:39.089Z,15.20
2023-01-06T19:15:18.036Z,15.20
2023-01-06T19:17:45.927Z,15.20
2023-01-06T19:20:19.948Z,15.10
2023-01-06T19:22:47.219Z,15.20
2023-01-06T19:25:29.224Z,15.20
2023-01-06T19:27:57.080Z,15.10
2023-01-06T19:30:34.946Z,15.10
2023-01-06T19:33:26.560Z,15.10
2023-01-06T19:36:38.851Z,15.10
2023-01-06T19:39:15.471Z,15.10
2023-01-06T19:41:42.539Z,15.10
2023-01-06T19:44:12.399Z,15.10
2023-01-06T19:46:42.465Z,15.10
2023-01-06T19:49:42.163Z,15.10
2023-01-06T19:52:32.532Z,15.10
2023-01-06T19:55:14.228Z,15.10
2023-01-06T19:57:57.343Z,15.10
2023-01-06T20:00:35.973Z,15.00
2023-01-06T20:03:04.324Z,15.10
2023-01-06T20:05:31.893Z,15.00
2023-01-06T20:07:58.532Z,15.00
2023-01-06T20:10:25.251Z,15.10
2023-01-06T20:12:52.116Z,15.00
2023-01-06T20:15:18.848Z,15.10
2023-01-06T20:17:45.632Z,15.00
2023-01-06T20:20:13.812Z,15.00
2023-01-06T20:22:40.618Z,15.00
2023-01-06T20:25:08.022Z,15.00
2023-01-06T20:27:35.175Z,15.00
2023-01-06T20:30:02.043Z,15.00
2023-01-06T20:32:28.769Z,15.00
2023-01-06T20:34:55.591Z,15.00
2023-01-06T20:37:22.303Z,15.00
2023-01-06T20:39:49.676Z,15.00
2023-01-06T20:42:16.338Z,15.00
2023-01-06T20:44:43.054Z,15.00
2023-01-06T20:47:09.803Z,15.00
2023-01-06T20:49:36.789Z,14.90
2023-01-06T20:52:03.568Z,14.90
2023-01-06T20:54:30.295Z,14.90
2023-01-06T20:56:57.272Z,14.90
2023-01-06T20:59:24.452Z,14.90
2023-01-06T21:01:51.280Z,14.90
2023-01-06T21:04:18.211Z,14.90
2023-01-06T21:06:45.679Z,14.90
2023-01-06T21:09:12.407Z,14.90
2023-01-06T21:11:39.062Z,15.00
2023-01-06T21:14:05.762Z,14.90
2023-01-06T21:16:32.434Z,14.90
2023-01-06T21:18:59.364Z,14.90
2023-01-06T21:21:26.108Z,14.90
2023-01-06T21:23:52.772Z,14.90
2023-01-06T21:26:19.500Z,14.90
2023-01-06T21:28:46.225Z,14.90
2023-01-06T21:31:13.145Z,14.90
2023-01-06T21:33:39.951Z,14.90
2023-01-06T21:36:07.017Z,14.90
2023-01-06T21:38:34.454Z,14.90
2023-01-06T21:41:20.072Z,14.90
2023-01-06T21:43:46.713Z,14.90
2023-01-06T21:46:13.467Z,14.80
2023-01-06T21:48:40.204Z,14.80
2023-01-06T21:51:07.317Z,14.80
2023-01-06T21:53:34.627Z,14.90
2023-01-06T21:56:01.538Z,14.80
2023-01-06T21:58:28.365Z,14.80
2023-01-06T22:00:55.082Z,14.80
2023-01-06T22:03:21.822Z,14.80
2023-01-06T22:05:48.624Z,14.80
2023-01-06T22:08:15.441Z,14.80
2023-01-06T22:10:43.639Z,14.80
2023-01-06T22:13:15.731Z,14.80
2023-01-06T22:15:42.963Z,14.80
2023-01-06T22:18:10.675Z,14.80
2023-01-06T22:20:38.044Z,14.80
2023-01-06T22:23:09.730Z,14.80
2023-01-06T22:25:36.592Z,14.80
2023-01-06T22:28:03.362Z,14.80
2023-01-06T22:30:33.182Z,14.70
2023-01-06T22:33:00.003Z,14.80
2023-01-06T22:35:26.777Z,14.80
2023-01-06T22:37:53.693Z,14.80
2023-01-06T22:40:21.042Z,14.80
2023-01-06T22:42:47.822Z,14.70
2023-01-06T22:45:14.552Z,14.70
2023-01-06T22:47:41.692Z,14.70
2023-01-06T22:50:09.985Z,14.70
2023-01-06T22:52:37.176Z,14.70
2023-01-06T22:55:04.452Z,14.70
2023-01-06T22:57:31.194Z,14.70
2023-01-06T23:00:00.767Z,14.70
2023-01-06T23:02:27.620Z,14.70
2023-01-06T23:04:54.436Z,14.70
2023-01-06T23:07:21.254Z,14.70
2023-01-06T23:09:47.971Z,14.70
2023-01-06T23:12:14.646Z,14.70
2023-01-06T23:14:41.425Z,14.70
2023-01-06T23:17:08.110Z,14.70
2023-01-06T23:19:34.815Z,14.70
2023-01-06T23:22:01.837Z,14.70
2023-01-06T23:24:28.749Z,14.70
2023-01-06T23:26:55.505Z,14.70
2023-01-06T23:29:22.225Z,14.70
2023-01-06T23:31:49.105Z,14.70
2023-01-06T23:34:17.602Z,14.70
2023-01-06T23:36:44.859Z,14.70
2023-01-06T23:39:13.770Z,14.70
2023-01-06T23:41:40.867Z,14.70
2023-01-06T23:44:09.259Z,14.70
2023-01-06T23:46:38.797Z,14.70
2023-01-06T23:49:06.521Z,14.70
2023-01-06T23:51:33.837Z,14.70
2023-01-06T23:54:02.358Z,14.70
2023-01-06T23:56:31.123Z,14.70
2023-01-06T23:59:00.581Z,14.70
